Time;durP1;ratioP1;P1;durP2;ratioP2;P2;SDS_P1;SDS_P2;PMS_P1;PMS_P2;Temp;Humidity;BMP_temperature;BMP_pressure;BME280_temperature;BME280_humidity;BME280_pressure;Samples;Min_cycle;Max_cycle;Signal;HPM_P1;HPM_P2
2022/08/31 00:04:02;;;;;;;4.13;1.70;;;;;;;17.35;62.13;101772.13;10489912;28;20127;-76
2022/08/31 00:09:04;;;;;;;2.80;1.75;;;;;;;17.39;61.73;101766.09;10483387;28;20550;-76
2022/08/31 00:14:07;;;;;;;11.73;3.70;;;;;;;17.28;61.82;101769.28;10429121;28;20041;-76
2022/08/31 00:19:07;;;;;;;11.90;2.30;;;;;;;17.06;62.83;101762.34;10434016;28;20029;-76
2022/08/31 00:24:08;;;;;;;4.25;1.67;;;;;;;16.95;63.40;101767.22;10430408;28;20025;-76
2022/08/31 00:29:09;;;;;;;3.90;1.80;;;;;;;16.85;63.88;101759.78;10452074;28;20036;-76
2022/08/31 00:34:10;;;;;;;3.63;1.70;;;;;;;16.75;64.22;101761.22;10465724;28;20037;-77
2022/08/31 00:39:10;;;;;;;2.97;1.50;;;;;;;16.66;64.57;101763.53;10433061;28;20492;-76
2022/08/31 00:44:11;;;;;;;2.95;1.88;;;;;;;16.64;64.62;101749.34;10484967;28;20044;-76
2022/08/31 00:49:16;;;;;;;2.92;1.80;;;;;;;16.57;65.11;101759.69;10481289;28;20132;-76
2022/08/31 00:54:22;;;;;;;5.13;2.90;;;;;;;16.54;65.21;101756.03;10445379;28;20037;-76
2022/08/31 00:59:22;;;;;;;3.17;1.80;;;;;;;16.38;66.56;101749.28;10453161;28;20400;-77
2022/08/31 01:04:23;;;;;;;5.47;1.77;;;;;;;16.31;66.95;101756.06;10452065;28;20128;-77
2022/08/31 01:09:24;;;;;;;4.05;1.55;;;;;;;16.30;67.11;101759.53;10473587;28;20064;-76
2022/08/31 01:14:24;;;;;;;2.42;1.83;;;;;;;16.32;67.62;101764.91;10482482;28;20064;-78
2022/08/31 01:19:40;;;;;;;4.50;2.17;;;;;;;16.24;67.98;101761.94;10475805;28;20053;-76
2022/08/31 01:24:42;;;;;;;3.45;2.15;;;;;;;16.20;68.70;101774.16;10428818;28;20032;-76
2022/08/31 01:29:43;;;;;;;2.13;1.45;;;;;;;16.32;68.27;101780.75;10458370;28;20065;-76
2022/08/31 01:34:43;;;;;;;3.67;2.35;;;;;;;16.33;68.72;101770.22;10483473;28;20591;-76
2022/08/31 01:39:44;;;;;;;4.72;1.90;;;;;;;16.26;69.01;101784.94;10471763;28;20503;-76
2022/08/31 01:44:44;;;;;;;4.22;2.70;;;;;;;16.31;68.91;101798.31;10477961;28;20094;-77
2022/08/31 01:49:45;;;;;;;8.25;2.72;;;;;;;16.23;69.79;101794.47;10456031;28;20527;-76
2022/08/31 01:54:45;;;;;;;4.22;1.73;;;;;;;16.09;71.17;101801.88;10484126;28;20067;-76
2022/08/31 01:59:46;;;;;;;6.05;2.83;;;;;;;15.97;71.32;101800.53;10480468;28;20128;-76
2022/08/31 02:04:46;;;;;;;11.52;1.98;;;;;;;15.94;71.22;101794.22;10484354;28;20488;-77
2022/08/31 02:09:47;;;;;;;2.97;1.67;;;;;;;15.71;72.97;101788.88;10470387;28;20124;-76
2022/08/31 02:14:47;;;;;;;4.13;2.13;;;;;;;15.52;74.39;101790.75;10484220;28;20389;-76
2022/08/31 02:19:48;;;;;;;6.65;1.98;;;;;;;15.43;74.65;101795.63;10465901;28;20503;-76
2022/08/31 02:24:48;;;;;;;3.80;1.65;;;;;;;15.39;74.88;101786.69;10441062;28;20464;-76
2022/08/31 02:29:49;;;;;;;2.88;2.25;;;;;;;15.40;75.94;101782.31;10456052;28;20036;-77
2022/08/31 02:34:50;;;;;;;5.97;2.28;;;;;;;15.35;76.81;101782.13;10460526;28;20489;-76
2022/08/31 02:39:50;;;;;;;4.07;2.28;;;;;;;15.25;78.40;101780.81;10456034;28;20614;-76
2022/08/31 02:44:51;;;;;;;3.72;2.28;;;;;;;15.25;77.93;101785.22;10464789;28;20039;-76
2022/08/31 02:49:51;;;;;;;4.38;2.38;;;;;;;15.31;77.95;101787.19;10468376;28;20128;-76
2022/08/31 02:54:52;;;;;;;4.38;2.65;;;;;;;15.40;77.80;101780.59;10440118;28;20504;-76
2022/08/31 02:59:52;;;;;;;4.55;3.15;;;;;;;15.38;77.96;101778.72;10455954;28;20140;-76
2022/08/31 03:04:53;;;;;;;3.53;1.90;;;;;;;15.40;77.92;101785.88;10425374;28;20184;-76
2022/08/31 03:09:54;;;;;;;10.75;2.30;;;;;;;15.50;78.02;101794.16;10423794;28;20083;-77
2022/08/31 03:14:54;;;;;;;2.17;1.85;;;;;;;15.57;77.29;101780.41;10439524;28;20037;-76
2022/08/31 03:19:59;;;;;;;15.95;2.70;;;;;;;15.56;77.31;101781.25;10456145;28;20107;-77
2022/08/31 03:25:00;;;;;;;3.15;1.90;;;;;;;15.47;77.74;101778.22;10481891;28;20472;-77
2022/08/31 03:30:00;;;;;;;2.67;2.03;;;;;;;15.27;78.76;101788.81;10464096;28;20090;-76
2022/08/31 03:35:01;;;;;;;4.25;2.10;;;;;;;15.19;78.95;101788.47;10472297;28;20069;-77
2022/08/31 03:40:02;;;;;;;4.22;2.50;;;;;;;15.09;79.55;101781.91;10456011;28;20067;-76
2022/08/31 03:45:03;;;;;;;3.30;1.80;;;;;;;15.05;79.71;101786.97;10422954;28;20175;-76
2022/08/31 03:50:04;;;;;;;5.05;2.35;;;;;;;14.90;80.44;101777.53;10455475;28;20037;-77
2022/08/31 03:55:05;;;;;;;4.55;2.03;;;;;;;14.79;81.18;101790.25;10463014;28;20040;-76
2022/08/31 04:00:07;;;;;;;2.85;1.90;;;;;;;14.64;82.59;101792.16;10430523;28;20064;-75
2022/08/31 04:05:08;;;;;;;4.03;2.40;;;;;;;14.57;82.84;101798.88;10438480;28;20033;-76
2022/08/31 04:10:12;;;;;;;5.43;2.55;;;;;;;14.60;82.96;101800.75;10471917;28;20081;-76
2022/08/31 04:15:13;;;;;;;4.95;2.20;;;;;;;14.62;82.82;101804.38;10480723;28;20040;-76
2022/08/31 04:20:13;;;;;;;3.97;1.80;;;;;;;14.64;82.67;101807.97;10446312;28;20052;-76
2022/08/31 04:25:14;;;;;;;4.70;2.85;;;;;;;14.66;82.98;101801.91;10447327;28;20036;-76
2022/08/31 04:30:14;;;;;;;4.57;2.45;;;;;;;14.70;82.62;101803.00;10430899;28;20119;-76
2022/08/31 04:35:15;;;;;;;2.80;2.08;;;;;;;14.65;82.94;101802.75;10422847;28;20048;-76
2022/08/31 04:40:19;;;;;;;4.60;2.05;;;;;;;14.54;84.55;101796.09;10460262;28;20106;-77
2022/08/31 04:45:19;;;;;;;9.55;3.17;;;;;;;14.41;85.25;101796.34;10469623;28;20392;-76
2022/08/31 04:50:20;;;;;;;4.18;2.47;;;;;;;14.26;84.96;101797.44;10415882;28;20040;-76
2022/08/31 04:55:20;;;;;;;3.65;2.65;;;;;;;14.07;85.25;101804.44;10458820;28;20115;-76
2022/08/31 05:00:21;;;;;;;5.28;3.00;;;;;;;13.88;85.70;101805.31;10470318;28;20048;-74
2022/08/31 05:05:21;;;;;;;6.72;2.67;;;;;;;13.77;86.26;101806.50;10463987;28;20151;-75
2022/08/31 05:10:23;;;;;;;4.65;2.72;;;;;;;13.67;86.78;101806.88;10427596;28;20103;-74
2022/08/31 05:15:23;;;;;;;5.97;3.20;;;;;;;13.53;87.39;101809.72;10475969;28;20507;-74
2022/08/31 05:20:24;;;;;;;7.78;3.95;;;;;;;13.46;87.64;101804.97;10442889;28;20033;-74
2022/08/31 05:25:25;;;;;;;6.97;3.78;;;;;;;13.46;88.16;101800.59;10444667;28;20029;-74
2022/08/31 05:30:26;;;;;;;5.13;2.85;;;;;;;13.56;88.24;101812.50;10457410;28;20040;-74
2022/08/31 05:35:26;;;;;;;4.97;2.40;;;;;;;13.74;87.32;101812.50;10460764;28;20041;-75
2022/08/31 05:40:27;;;;;;;9.30;2.85;;;;;;;13.92;86.25;101808.97;10454879;28;20127;-75
2022/08/31 05:45:27;;;;;;;4.22;2.83;;;;;;;14.08;85.18;101800.09;10463432;28;20052;-76
2022/08/31 05:50:28;;;;;;;7.28;4.13;;;;;;;14.42;83.11;101806.97;10443501;28;20124;-75
2022/08/31 05:55:30;;;;;;;6.32;2.15;;;;;;;14.63;82.05;101807.06;10443307;28;20041;-77
2022/08/31 06:00:31;;;;;;;23.13;14.03;;;;;;;14.95;80.01;101806.75;10441571;28;20123;-76
2022/08/31 06:05:31;;;;;;;4.13;2.55;;;;;;;15.34;78.00;101804.06;10437374;28;20300;-75
2022/08/31 06:10:35;;;;;;;6.53;2.60;;;;;;;16.25;74.60;101800.72;10461472;28;20055;-76
2022/08/31 06:15:35;;;;;;;3.63;2.35;;;;;;;17.50;68.01;101816.75;10449399;28;20040;-76
2022/08/31 06:20:36;;;;;;;7.78;2.47;;;;;;;19.14;61.68;101823.56;10453532;28;20041;-76
2022/08/31 06:25:37;;;;;;;3.03;1.73;;;;;;;20.22;58.02;101817.47;10460810;28;20033;-76
2022/08/31 06:30:40;;;;;;;5.33;2.53;;;;;;;21.11;53.31;101818.44;10443812;28;20032;-77
2022/08/31 06:35:41;;;;;;;8.65;3.22;;;;;;;21.56;51.43;101832.59;10445529;28;20043;-74
2022/08/31 06:40:42;;;;;;;3.53;1.63;;;;;;;21.97;50.15;101825.28;10443903;28;20086;-74
2022/08/31 06:45:42;;;;;;;4.20;1.23;;;;;;;22.53;49.06;101828.78;10452918;28;20040;-76
2022/08/31 06:50:43;;;;;;;3.70;1.40;;;;;;;22.43;47.69;101830.38;10456645;28;20049;-74
2022/08/31 06:55:43;;;;;;;6.40;2.60;;;;;;;20.36;52.31;101839.94;10459628;28;20044;-75
2022/08/31 07:00:44;;;;;;;4.25;1.63;;;;;;;19.00;56.80;101847.97;10452720;28;20044;-75
2022/08/31 07:05:45;;;;;;;5.10;2.13;;;;;;;18.36;59.08;101853.13;10422106;28;20044;-73
2022/08/31 07:10:46;;;;;;;3.90;2.20;;;;;;;18.15;60.91;101854.22;10439760;28;20061;-75
2022/08/31 07:15:46;;;;;;;5.68;2.38;;;;;;;18.27;61.31;101855.47;10430071;28;20125;-74
2022/08/31 07:20:46;;;;;;;4.00;2.47;;;;;;;18.48;61.07;101868.50;10442117;28;20039;-74
2022/08/31 07:25:47;;;;;;;5.40;2.30;;;;;;;18.74;58.72;101856.03;10438328;28;20075;-74
2022/08/31 07:30:48;;;;;;;3.63;2.10;;;;;;;18.87;59.60;101862.63;10455348;28;20090;-75
2022/08/31 07:35:49;;;;;;;6.03;2.07;;;;;;;19.76;56.81;101862.38;10436149;28;20040;-75
2022/08/31 07:46:09;;;;;;;5.40;1.90;;;;;;;19.93;54.52;101873.47;10400759;28;20037;-74
2022/08/31 07:51:10;;;;;;;3.65;2.05;;;;;;;19.65;56.49;101878.91;10398600;28;20061;-74
2022/08/31 07:56:10;;;;;;;8.00;2.42;;;;;;;19.70;55.68;101875.50;10398117;28;20191;-76
2022/08/31 08:01:11;;;;;;;3.50;2.17;;;;;;;20.14;55.31;101870.44;10381818;28;20124;-76
2022/08/31 08:06:13;;;;;;;3.22;1.98;;;;;;;21.35;50.62;101874.81;10398831;28;20482;-77
2022/08/31 08:11:15;;;;;;;5.05;2.50;;;;;;;22.13;49.93;101871.72;10386103;28;20038;-77
2022/08/31 08:16:16;;;;;;;4.57;1.90;;;;;;;22.96;47.55;101868.44;10388078;28;20052;-76
2022/08/31 08:21:16;;;;;;;6.87;2.50;;;;;;;22.84;47.58;101887.88;10411590;28;20055;-75
2022/08/31 08:26:17;;;;;;;13.40;4.10;;;;;;;23.79;45.03;101871.13;10417536;28;20043;-73
2022/08/31 08:31:21;;;;;;;7.23;2.27;;;;;;;25.74;42.44;101875.66;10390483;28;20488;-75
2022/08/31 08:36:22;;;;;;;8.07;2.05;;;;;;;27.09;36.69;101870.00;10402891;28;20040;-77
2022/08/31 08:41:24;;;;;;;6.87;2.90;;;;;;;26.05;40.83;101881.88;10405383;28;20048;-75
2022/08/31 08:46:47;;;;;;;4.75;2.53;;;;;;;26.84;37.92;101875.50;10403349;28;20033;-77
2022/08/31 08:51:49;;;;;;;10.23;3.53;;;;;;;26.91;37.60;101882.63;10409893;28;20041;-74
2022/08/31 08:56:50;;;;;;;6.28;2.67;;;;;;;24.56;41.46;101880.59;10457515;28;20515;-77
2022/08/31 09:01:51;;;;;;;5.37;2.90;;;;;;;25.93;41.64;101890.84;10458180;28;20047;-73
2022/08/31 09:07:21;;;;;;;10.75;2.65;;;;;;;28.25;35.89;101874.53;10446131;28;20037;-74
2022/08/31 09:12:50;;;;;;;9.05;4.35;;;;;;;29.22;34.11;101873.38;10452921;28;20048;-75
2022/08/31 09:17:59;;;;;;;5.22;2.50;;;;;;;29.11;34.07;101877.09;10452054;28;20049;-77
2022/08/31 09:23:00;;;;;;;9.57;2.63;;;;;;;29.39;34.12;101871.34;10467891;28;20033;-76
2022/08/31 09:28:02;;;;;;;5.63;1.77;;;;;;;29.63;33.43;101881.75;10455673;28;20465;-74
2022/08/31 09:33:03;;;;;;;12.48;2.88;;;;;;;29.84;33.19;101885.91;10436238;28;20037;-74
2022/08/31 09:38:08;;;;;;;8.73;2.78;;;;;;;29.21;33.17;101876.97;10441585;28;20029;-77
2022/08/31 09:43:12;;;;;;;7.95;3.33;;;;;;;30.13;31.91;101887.22;10442932;28;21900;-77
2022/08/31 09:48:12;;;;;;;9.98;3.95;;;;;;;30.06;31.61;101883.75;10413796;28;20494;-78
2022/08/31 09:58:43;;;;;;;9.93;4.38;;;;;;;30.52;32.23;101876.59;10378776;28;20415;-75
2022/08/31 10:03:44;;;;;;;;;;;;;;;28.19;35.42;101871.91;10402244;28;20034;-77
2022/08/31 10:08:56;;;;;;;9.03;3.47;;;;;;;26.48;38.84;101872.91;10402076;28;19921;-77
2022/08/31 10:14:05;;;;;;;6.70;3.63;;;;;;;24.85;41.87;101862.03;10424810;28;20094;-77
2022/08/31 10:19:12;;;;;;;7.90;3.85;;;;;;;24.99;43.32;101869.22;10442416;28;20045;-75
2022/08/31 10:24:37;;;;;;;7.85;3.85;;;;;;;25.16;42.30;101870.16;10441333;28;20608;-74
2022/08/31 10:29:44;;;;;;;5.20;2.85;;;;;;;25.36;41.63;101863.94;10425009;28;20045;-75
2022/08/31 10:35:36;;;;;;;8.30;4.63;;;;;;;25.38;42.37;101867.53;10436463;28;20051;-75
2022/08/31 10:40:42;;;;;;;5.40;2.80;;;;;;;28.09;36.54;101856.72;10339667;28;20502;-75
2022/08/31 10:45:45;;;;;;;6.53;2.97;;;;;;;30.17;33.24;101849.34;10396798;28;20090;-75
2022/08/31 10:51:21;;;;;;;4.32;2.72;;;;;;;30.93;31.52;101849.63;10441217;28;20485;-75
2022/08/31 10:56:38;;;;;;;6.30;3.03;;;;;;;30.80;31.68;101848.13;10440931;28;20563;-75
2022/08/31 11:02:06;;;;;;;10.50;4.43;;;;;;;30.02;33.59;101853.22;10442398;28;20056;-75
2022/08/31 11:07:34;;;;;;;6.18;3.20;;;;;;;29.29;34.16;101848.09;10435274;28;20122;-73
2022/08/31 11:12:41;;;;;;;7.82;3.03;;;;;;;30.90;33.11;101839.78;10463851;28;20044;-74
2022/08/31 11:18:07;;;;;;;6.47;3.05;;;;;;;31.27;30.76;101840.75;10408214;28;20064;-75
2022/08/31 11:23:25;;;;;;;5.72;3.60;;;;;;;30.37;32.36;101847.19;10446569;28;20106;-77
2022/08/31 11:28:41;;;;;;;5.53;3.13;;;;;;;29.88;34.03;101839.94;10427677;28;20037;-77
2022/08/31 11:33:49;;;;;;;7.13;5.25;;;;;;;30.55;32.83;101830.59;10417457;28;20052;-75
2022/08/31 11:38:53;;;;;;;6.75;3.90;;;;;;;29.63;33.05;101834.09;10428830;28;20040;-74
2022/08/31 11:43:53;;;;;;;7.00;3.70;;;;;;;28.59;35.83;101830.16;10423029;28;20091;-73
2022/08/31 11:48:54;;;;;;;7.70;4.10;;;;;;;29.08;34.67;101820.56;10468443;28;20119;-73
2022/08/31 11:53:54;;;;;;;7.27;3.37;;;;;;;29.72;32.97;101820.47;10447197;28;20357;-75
2022/08/31 11:59:29;;;;;;;6.10;4.07;;;;;;;31.33;31.00;101816.28;10447686;28;20120;-77
2022/08/31 12:04:45;;;;;;;11.60;4.00;;;;;;;31.35;30.29;101814.41;10480968;28;20579;-78
2022/08/31 12:09:54;;;;;;;10.43;3.15;;;;;;;31.44;29.34;101802.50;10487807;28;20037;-80
2022/08/31 12:15:06;;;;;;;11.75;4.18;;;;;;;30.75;31.59;101802.31;10487362;28;20051;-78
2022/08/31 12:26:29;;;;;;;5.22;2.83;;;;;;;28.56;35.00;101795.19;10431346;28;20488;-78
2022/08/31 12:31:30;;;;;;;6.72;3.63;;;;;;;30.21;31.91;101769.22;10438176;28;20374;-74
2022/08/31 12:36:32;;;;;;;7.23;3.47;;;;;;;29.86;32.51;101779.72;10442292;28;20123;-74
2022/08/31 12:41:33;;;;;;;9.77;4.05;;;;;;;29.59;33.37;101782.03;10441576;28;20681;-73
2022/08/31 12:46:36;;;;;;;8.90;3.67;;;;;;;30.21;32.13;101785.41;10441506;28;20041;-75
2022/08/31 12:51:46;;;;;;;7.70;3.40;;;;;;;30.11;31.78;101778.41;10445891;28;20128;-75
2022/08/31 12:56:49;;;;;;;6.47;3.95;;;;;;;29.22;33.98;101779.91;10430322;28;20052;-76
2022/08/31 13:01:49;;;;;;;6.25;3.47;;;;;;;28.33;35.29;101773.97;10419982;28;20046;-78
2022/08/31 13:06:50;;;;;;;7.23;3.73;;;;;;;27.38;36.66;101767.69;10416788;28;20112;-74
2022/08/31 13:11:52;;;;;;;6.43;3.70;;;;;;;26.80;37.60;101772.56;10400005;28;20084;-80
2022/08/31 13:17:05;;;;;;;5.32;3.75;;;;;;;26.40;39.77;101767.38;10389109;28;20037;-74
2022/08/31 13:22:10;;;;;;;6.32;3.95;;;;;;;26.38;39.98;101762.00;10421664;28;20072;-74
2022/08/31 13:27:21;;;;;;;10.35;3.75;;;;;;;26.90;40.17;101761.78;10442757;28;20484;-75
2022/08/31 13:32:31;;;;;;;7.10;3.75;;;;;;;28.88;34.41;101752.63;10441306;28;20040;-75
2022/08/31 13:37:36;;;;;;;8.02;4.28;;;;;;;28.24;37.15;101753.44;10453645;28;20438;-73
2022/08/31 13:42:41;;;;;;;11.40;4.25;;;;;;;27.25;38.17;101753.47;10456273;28;20511;-73
2022/08/31 13:47:46;;;;;;;7.25;4.63;;;;;;;27.17;38.35;101747.25;10438439;28;20045;-72
2022/08/31 13:52:52;;;;;;;6.72;4.75;;;;;;;26.81;38.62;101750.16;10464719;28;20095;-73
2022/08/31 13:58:04;;;;;;;9.13;3.55;;;;;;;27.52;38.33;101747.91;10402939;28;20030;-73
2022/08/31 14:03:44;;;;;;;8.45;4.05;;;;;;;27.96;37.02;101748.34;10417003;28;20052;-73
2022/08/31 14:08:47;;;;;;;6.68;3.60;;;;;;;27.46;37.47;101745.25;10416380;28;20132;-74
2022/08/31 14:13:48;;;;;;;9.70;4.30;;;;;;;27.34;38.45;101728.31;10421953;28;20088;-74
2022/08/31 14:18:54;;;;;;;9.57;4.88;;;;;;;28.14;36.96;101731.16;10418228;28;20348;-73
2022/08/31 14:24:01;;;;;;;11.77;4.82;;;;;;;28.35;36.10;101735.34;10413428;28;20037;-74
2022/08/31 14:29:08;;;;;;;9.50;4.85;;;;;;;29.47;34.84;101733.69;10452464;28;20056;-74
2022/08/31 14:34:23;;;;;;;8.02;4.53;;;;;;;28.75;36.11;101711.47;10451648;28;20033;-75
2022/08/31 14:39:26;;;;;;;5.57;4.25;;;;;;;29.89;33.34;101714.06;10442759;28;20044;-74
2022/08/31 14:44:31;;;;;;;7.70;4.53;;;;;;;29.36;34.23;101709.63;10426993;28;20052;-76
2022/08/31 14:49:32;;;;;;;8.85;4.15;;;;;;;29.62;34.60;101705.56;10451275;28;20547;-76
2022/08/31 14:54:33;;;;;;;7.05;4.32;;;;;;;29.84;34.37;101707.84;10401893;28;20064;-73
2022/08/31 14:59:34;;;;;;;9.35;4.53;;;;;;;28.45;35.94;101711.00;10415892;28;20465;-76
2022/08/31 15:04:35;;;;;;;7.03;3.50;;;;;;;28.73;36.21;101703.44;10413910;28;20047;-78
2022/08/31 15:09:36;;;;;;;11.27;5.33;;;;;;;28.17;36.21;101703.28;10426005;28;20104;-78
2022/08/31 15:14:37;;;;;;;8.13;4.53;;;;;;;27.68;37.99;101705.63;10439697;28;20390;-77
2022/08/31 15:19:39;;;;;;;6.80;3.58;;;;;;;27.83;37.59;101704.56;10433089;28;20037;-78
2022/08/31 15:24:43;;;;;;;7.50;4.43;;;;;;;27.72;38.48;101707.38;10402494;28;20045;-76
2022/08/31 15:29:45;;;;;;;7.25;4.15;;;;;;;27.28;38.48;101704.19;10404680;28;20025;-76
2022/08/31 15:34:52;;;;;;;6.55;4.03;;;;;;;27.42;39.25;101701.34;10386778;28;20038;-78
2022/08/31 15:39:52;;;;;;;9.88;4.47;;;;;;;27.65;38.16;101702.97;10437414;28;20033;-75
2022/08/31 15:44:55;;;;;;;4.87;4.03;;;;;;;27.22;38.07;101701.56;10437672;28;20083;-79
2022/08/31 15:49:56;;;;;;;6.50;4.30;;;;;;;26.41;40.20;101701.19;10442715;28;20108;-77
2022/08/31 15:54:57;;;;;;;9.63;4.40;;;;;;;25.41;42.68;101701.41;10439124;28;20048;-78
2022/08/31 15:59:57;;;;;;;5.90;5.13;;;;;;;24.44;45.13;101702.19;10440722;28;20045;-76
2022/08/31 16:04:58;;;;;;;8.63;4.67;;;;;;;24.01;45.57;101701.13;10439647;28;20094;-76
2022/08/31 16:09:59;;;;;;;4.70;3.53;;;;;;;23.66;46.44;101693.75;10440535;28;20087;-76
2022/08/31 16:15:00;;;;;;;7.20;4.43;;;;;;;23.92;46.63;101694.81;10421095;28;20037;-76
2022/08/31 16:20:00;;;;;;;4.53;3.83;;;;;;;24.03;45.29;101688.66;10439877;28;20037;-76
2022/08/31 16:25:01;;;;;;;10.57;4.63;;;;;;;23.95;45.94;101700.16;10472634;28;20029;-76
2022/08/31 16:30:02;;;;;;;5.43;4.07;;;;;;;23.80;46.62;101695.63;10470672;28;20461;-76
2022/08/31 16:35:04;;;;;;;6.80;3.83;;;;;;;23.83;46.71;101700.97;10444543;28;20095;-78
2022/08/31 16:40:05;;;;;;;6.13;3.83;;;;;;;23.71;47.66;101696.47;10446553;28;20056;-79
2022/08/31 16:45:06;;;;;;;6.67;3.90;;;;;;;23.49;46.61;101687.41;10446793;28;20188;-78
2022/08/31 16:50:07;;;;;;;6.20;3.63;;;;;;;23.28;47.59;101695.28;10446664;28;20584;-74
2022/08/31 16:55:12;;;;;;;6.05;3.50;;;;;;;23.10;47.08;101698.66;10444793;28;20450;-79
2022/08/31 17:00:13;;;;;;;6.90;3.90;;;;;;;22.81;50.01;101695.72;10447379;28;20099;-78
2022/08/31 17:05:14;;;;;;;6.57;3.58;;;;;;;22.53;50.18;101698.97;10443784;28;20451;-77
2022/08/31 17:10:14;;;;;;;4.50;3.35;;;;;;;22.30;49.72;101693.34;10446024;28;20044;-77
2022/08/31 17:15:15;;;;;;;8.20;3.73;;;;;;;22.05;51.32;101690.38;10446942;28;20055;-77
2022/08/31 17:20:16;;;;;;;6.27;3.47;;;;;;;21.86;52.39;101686.56;10445040;28;20057;-76
2022/08/31 17:25:18;;;;;;;7.70;3.50;;;;;;;21.71;52.22;101698.78;10445141;28;20033;-76
2022/08/31 17:30:19;;;;;;;5.18;3.47;;;;;;;21.51;53.04;101701.13;10445690;28;20094;-76
2022/08/31 17:35:19;;;;;;;8.68;3.63;;;;;;;21.38;53.49;101705.34;10445270;28;20565;-77
2022/08/31 17:40:20;;;;;;;5.45;3.30;;;;;;;21.30;53.67;101708.78;10445158;28;20113;-76
2022/08/31 17:45:20;;;;;;;7.68;3.60;;;;;;;21.07;54.63;101704.84;10443485;28;20037;-76
2022/08/31 17:50:21;;;;;;;4.97;3.13;;;;;;;20.99;55.59;101719.75;10445132;28;20128;-77
2022/08/31 17:55:21;;;;;;;18.48;6.18;;;;;;;20.76;55.35;101714.88;10443446;28;20068;-77
2022/08/31 18:00:22;;;;;;;9.18;3.90;;;;;;;20.80;57.48;101721.22;10444179;28;20049;-77
2022/08/31 18:05:22;;;;;;;13.50;3.65;;;;;;;20.87;54.42;101722.19;10443637;28;20123;-76
2022/08/31 18:10:24;;;;;;;7.70;3.08;;;;;;;20.77;54.06;101719.34;10445064;28;20032;-76
2022/08/31 18:15:24;;;;;;;5.40;3.20;;;;;;;20.84;51.95;101733.69;10442901;28;20033;-78
2022/08/31 18:20:26;;;;;;;9.23;4.15;;;;;;;20.89;52.48;101736.44;10442401;28;20111;-78
2022/08/31 18:25:30;;;;;;;7.43;3.10;;;;;;;20.64;53.85;101738.56;10441856;28;20044;-78
2022/08/31 18:30:32;;;;;;;5.82;2.72;;;;;;;20.45;53.24;101746.19;10441241;28;20041;-78
2022/08/31 18:35:33;;;;;;;7.85;2.78;;;;;;;20.31;54.43;101752.97;10440436;28;20124;-75
2022/08/31 18:45:55;;;;;;;8.93;2.90;;;;;;;19.89;57.25;101762.66;10428467;28;20033;-78
2022/08/31 18:50:57;;;;;;;5.65;2.65;;;;;;;19.63;56.09;101768.25;10441883;28;20029;-79
2022/08/31 18:56:04;;;;;;;6.07;2.80;;;;;;;19.63;57.03;101779.75;10441050;28;20062;-76
2022/08/31 19:01:08;;;;;;;2.95;2.20;;;;;;;19.36;55.53;101778.19;10441171;28;20025;-75
2022/08/31 19:06:15;;;;;;;4.32;2.95;;;;;;;19.30;57.39;101782.44;10440823;28;20565;-78
2022/08/31 19:11:17;;;;;;;5.05;2.58;;;;;;;19.14;57.00;101795.31;10440591;28;20076;-78
2022/08/31 19:16:22;;;;;;;7.45;2.22;;;;;;;19.07;58.25;101793.34;10441594;28;20041;-77
2022/08/31 19:21:30;;;;;;;9.05;2.30;;;;;;;18.88;58.71;101797.19;10439983;28;20029;-78
2022/08/31 19:26:44;;;;;;;4.63;2.10;;;;;;;18.64;58.66;101803.59;10437728;28;20087;-77
2022/08/31 19:31:46;;;;;;;7.88;2.92;;;;;;;18.45;58.83;101797.75;10447550;28;20410;-77
2022/08/31 19:36:47;;;;;;;8.05;2.25;;;;;;;18.27;60.30;101797.19;10436055;28;20040;-78
2022/08/31 19:41:49;;;;;;;8.03;3.43;;;;;;;18.12;59.95;101805.56;10470474;28;20037;-78
2022/08/31 19:46:50;;;;;;;8.05;2.20;;;;;;;17.87;61.71;101802.97;10477086;28;20262;-78
2022/08/31 19:51:53;;;;;;;6.93;2.67;;;;;;;17.57;62.60;101808.19;10482467;28;20120;-78
2022/08/31 19:56:54;;;;;;;6.05;2.08;;;;;;;17.25;64.04;101807.97;10480778;28;20480;-77
2022/08/31 20:01:55;;;;;;;4.47;2.42;;;;;;;16.97;64.81;101810.50;10452201;28;20051;-77
2022/08/31 20:06:55;;;;;;;4.93;1.98;;;;;;;16.77;65.15;101812.41;10440527;28;20041;-76
2022/08/31 20:11:58;;;;;;;12.88;2.30;;;;;;;16.67;66.17;101805.84;10451703;28;20056;-78
2022/08/31 20:16:59;;;;;;;4.90;2.75;;;;;;;16.48;66.42;101811.28;10448002;28;20041;-79
2022/08/31 20:22:06;;;;;;;6.53;2.05;;;;;;;16.36;67.96;101814.38;10448502;28;20032;-79
2022/08/31 20:27:09;;;;;;;4.45;2.22;;;;;;;16.28;67.92;101811.41;10465194;28;20065;-80
2022/08/31 20:32:10;;;;;;;4.78;2.20;;;;;;;16.24;67.34;101818.31;10487186;28;20416;-80
2022/08/31 20:37:11;;;;;;;3.78;2.17;;;;;;;16.23;67.54;101812.97;10472555;28;20123;-78
2022/08/31 20:42:14;;;;;;;5.10;1.85;;;;;;;16.15;68.08;101808.28;10486316;28;20468;-77
2022/08/31 20:52:34;;;;;;;3.50;1.77;;;;;;;16.04;68.20;101806.06;10442583;28;20044;-77
2022/08/31 20:57:35;;;;;;;4.47;1.80;;;;;;;16.00;68.15;101805.03;10447472;28;20037;-77
2022/08/31 21:02:38;;;;;;;5.38;1.75;;;;;;;16.01;67.58;101812.13;10485641;28;20036;-78
2022/08/31 21:07:39;;;;;;;2.17;1.38;;;;;;;15.92;68.17;101814.38;10452798;28;20039;-77
2022/08/31 21:12:39;;;;;;;3.03;1.75;;;;;;;15.91;67.56;101799.38;10487030;28;20036;-77
2022/08/31 21:17:40;;;;;;;2.17;1.00;;;;;;;15.91;66.57;101802.03;10485266;28;20029;-78
2022/08/31 21:22:41;;;;;;;3.40;1.67;;;;;;;16.02;67.44;101807.75;10467634;28;20041;-80
2022/08/31 21:27:41;;;;;;;3.38;1.33;;;;;;;15.89;66.28;101807.25;10487389;28;20438;-79
2022/08/31 21:32:42;;;;;;;8.07;2.13;;;;;;;15.93;67.08;101802.97;10480707;28;20484;-81
2022/08/31 21:37:43;;;;;;;5.00;1.48;;;;;;;15.99;64.73;101805.88;10485194;28;20049;-78
2022/08/31 21:42:44;;;;;;;5.15;1.77;;;;;;;16.12;64.20;101810.81;10486402;28;20484;-78
2022/08/31 21:47:44;;;;;;;3.55;1.17;;;;;;;16.14;63.11;101806.47;10466847;28;20037;-79
2022/08/31 21:52:45;;;;;;;5.35;1.40;;;;;;;16.37;61.48;101806.47;10452217;28;20055;-78
2022/08/31 21:57:45;;;;;;;3.58;1.30;;;;;;;16.43;62.35;101809.38;10463748;28;20132;-78
2022/08/31 22:02:46;;;;;;;3.80;1.75;;;;;;;16.37;61.50;101798.56;10448262;28;20080;-77
2022/08/31 22:07:47;;;;;;;4.45;1.20;;;;;;;16.18;62.82;101799.59;10477295;28;20093;-75
2022/08/31 22:12:48;;;;;;;2.00;1.63;;;;;;;16.13;61.73;101801.16;10442257;28;20033;-77
2022/08/31 22:17:49;;;;;;;4.35;1.10;;;;;;;16.02;63.22;101800.72;10460876;28;20078;-78
2022/08/31 22:22:49;;;;;;;3.28;1.30;;;;;;;15.83;61.34;101806.97;10444796;28;20123;-77
2022/08/31 22:27:50;;;;;;;4.20;1.15;;;;;;;15.74;62.86;101804.84;10457950;28;20049;-78
2022/08/31 22:32:51;;;;;;;4.80;1.13;;;;;;;15.47;62.65;101800.19;10475266;28;20127;-78
2022/08/31 22:37:51;;;;;;;2.10;1.10;;;;;;;15.30;63.00;101804.78;10465064;28;20037;-78
2022/08/31 22:42:52;;;;;;;25.20;3.10;;;;;;;15.26;62.45;101806.34;10482211;28;20036;-79
2022/08/31 22:47:53;;;;;;;5.97;1.50;;;;;;;15.11;62.26;101808.31;10451373;28;20048;-78
2022/08/31 22:52:53;;;;;;;3.80;1.10;;;;;;;15.03;62.65;101800.09;10469150;28;20153;-77
2022/08/31 22:57:54;;;;;;;4.15;1.20;;;;;;;15.14;61.51;101797.91;10461602;28;20037;-79
2022/08/31 23:02:54;;;;;;;2.22;1.08;;;;;;;15.14;61.89;101797.91;10482164;28;20052;-77
2022/08/31 23:07:55;;;;;;;4.85;1.23;;;;;;;15.03;61.88;101804.44;10450116;28;20055;-78
2022/08/31 23:12:56;;;;;;;7.57;1.05;;;;;;;15.12;61.37;101791.66;10442421;28;20489;-78
2022/08/31 23:17:57;;;;;;;2.40;1.02;;;;;;;15.00;62.16;101801.69;10448345;28;20495;-77
2022/08/31 23:22:59;;;;;;;3.25;1.17;;;;;;;15.06;61.72;101800.22;10462947;28;20041;-77
2022/08/31 23:28:01;;;;;;;3.78;1.50;;;;;;;15.02;62.55;101797.38;10424100;28;20041;-77
2022/08/31 23:33:01;;;;;;;2.00;0.93;;;;;;;14.84;62.22;101795.72;10452086;28;20041;-78
2022/08/31 23:38:02;;;;;;;3.55;1.20;;;;;;;14.76;64.41;101791.84;10462411;28;20056;-77
2022/08/31 23:43:03;;;;;;;4.82;1.30;;;;;;;14.78;63.19;101782.28;10475930;28;20433;-77